DLH24G EDSB-EDLP
Flight info
| Callsign | DLH24G |
|---|---|
| Flight time | 0h 33m |
| Altitude | 24000 |
| Route | GAGSI2Z GAGSI DCT BADLI Q762 OLGAD DCT RAVKI DCT SLD DCT PELUN PELUN3H |
| Aircraft | A320/M-SDE3FGHIRWY/LB1 |
Departure
| Time | 2026-05-05 16:44 |
|---|---|
| Airport | Karlsruhe Baden-Baden Airport (EDSB) |
Arrival
| Time | 2026-05-05 17:18 |
|---|---|
| Airport | Paderborn Lippstadt Airport (EDLP) |
| Time | Latitude | Longitude | Altitude | Speed | Heading |
|---|---|---|---|---|---|
| 2026-05-05 16:20 | 48.78119 | 8.08861 | 413 ft | 0 kts | 159° |
| 2026-05-05 16:33 | 48.78120 | 8.08861 | 412 ft | 0 kts | 159° |
| 2026-05-05 16:37 | 48.78104 | 8.08856 | 411 ft | 3 kts | 207° |
| 2026-05-05 16:38 | 48.78103 | 8.08840 | 412 ft | 1 kts | 269° |
| 2026-05-05 16:38 | 48.78118 | 8.08810 | 412 ft | 4 kts | 324° |
| 2026-05-05 16:38 | 48.78143 | 8.08801 | 412 ft | 3 kts | 356° |
| 2026-05-05 16:38 | 48.78159 | 8.08806 | 412 ft | 2 kts | 17° |
| 2026-05-05 16:39 | 48.78209 | 8.08851 | 412 ft | 12 kts | 36° |
| 2026-05-05 16:39 | 48.78275 | 8.08929 | 412 ft | 12 kts | 32° |
| 2026-05-05 16:39 | 48.78348 | 8.08999 | 411 ft | 13 kts | 32° |
| 2026-05-05 16:39 | 48.78425 | 8.09072 | 412 ft | 14 kts | 32° |
| 2026-05-05 16:40 | 48.78509 | 8.09152 | 409 ft | 15 kts | 32° |
| 2026-05-05 16:40 | 48.78603 | 8.09238 | 411 ft | 17 kts | 31° |
| 2026-05-05 16:40 | 48.78706 | 8.09285 | 412 ft | 16 kts | 325° |
| 2026-05-05 16:40 | 48.78777 | 8.09153 | 413 ft | 16 kts | 334° |
| 2026-05-05 16:41 | 48.78861 | 8.09209 | 410 ft | 1 kts | 36° |
| 2026-05-05 16:42 | 48.78866 | 8.09214 | 411 ft | 5 kts | 36° |
| 2026-05-05 16:42 | 48.78932 | 8.09277 | 412 ft | 17 kts | 29° |
| 2026-05-05 16:43 | 48.79028 | 8.09234 | 412 ft | 17 kts | 302° |
| 2026-05-05 16:43 | 48.79034 | 8.09081 | 412 ft | 17 kts | 213° |
| 2026-05-05 16:43 | 48.79021 | 8.09068 | 413 ft | 0 kts | 212° |
| 2026-05-05 16:43 | 48.79011 | 8.09059 | 413 ft | 18 kts | 212° |
| 2026-05-05 16:44 | 48.78672 | 8.08741 | 411 ft | 94 kts | 211° |
| 2026-05-05 16:44 | 48.77941 | 8.08056 | 412 ft | 151 kts | 211° |
| 2026-05-05 16:44 | 48.76962 | 8.07130 | 749 ft | 170 kts | 212° |
| 2026-05-05 16:44 | 48.75969 | 8.06143 | 1489 ft | 169 kts | 213° |
| 2026-05-05 16:45 | 48.74955 | 8.05156 | 2042 ft | 181 kts | 209° |
| 2026-05-05 16:45 | 48.73781 | 8.04240 | 2348 ft | 204 kts | 210° |
| 2026-05-05 16:45 | 48.72490 | 8.03067 | 2762 ft | 228 kts | 212° |
| 2026-05-05 16:45 | 48.71083 | 8.01729 | 3232 ft | 249 kts | 212° |
| 2026-05-05 16:46 | 48.69566 | 8.00400 | 4086 ft | 255 kts | 203° |
| 2026-05-05 16:46 | 48.67812 | 7.99951 | 5018 ft | 262 kts | 179° |
| 2026-05-05 16:46 | 48.66059 | 8.00773 | 5924 ft | 272 kts | 152° |
| 2026-05-05 16:46 | 48.64724 | 8.02853 | 6760 ft | 286 kts | 122° |
| 2026-05-05 16:47 | 48.64223 | 8.05788 | 7593 ft | 298 kts | 90° |
| 2026-05-05 16:47 | 48.64799 | 8.08815 | 8420 ft | 306 kts | 57° |
| 2026-05-05 16:47 | 48.66321 | 8.11053 | 9245 ft | 309 kts | 31° |
| 2026-05-05 16:47 | 48.68175 | 8.12720 | 10049 ft | 313 kts | 27° |
| 2026-05-05 16:48 | 48.70152 | 8.14344 | 10360 ft | 335 kts | 26° |
| 2026-05-05 16:48 | 48.72286 | 8.16044 | 10608 ft | 358 kts | 26° |
| 2026-05-05 16:48 | 48.74535 | 8.17844 | 11123 ft | 370 kts | 27° |
| 2026-05-05 16:48 | 48.76817 | 8.19705 | 11819 ft | 374 kts | 27° |
| 2026-05-05 16:49 | 48.79110 | 8.21610 | 12573 ft | 378 kts | 27° |
| 2026-05-05 16:49 | 48.81426 | 8.23557 | 13306 ft | 382 kts | 27° |
| 2026-05-05 16:49 | 48.83761 | 8.25530 | 13979 ft | 386 kts | 27° |
| 2026-05-05 16:49 | 48.86107 | 8.27521 | 14631 ft | 388 kts | 28° |
| 2026-05-05 16:50 | 48.88472 | 8.29529 | 15289 ft | 391 kts | 28° |
| 2026-05-05 16:50 | 48.90855 | 8.31552 | 15945 ft | 394 kts | 28° |
| 2026-05-05 16:50 | 48.93304 | 8.33445 | 16588 ft | 396 kts | 19° |
| 2026-05-05 16:50 | 48.95991 | 8.34327 | 17194 ft | 397 kts | 1° |
| 2026-05-05 16:51 | 48.98731 | 8.33928 | 17779 ft | 397 kts | 343° |
| 2026-05-05 16:51 | 49.01267 | 8.32274 | 18359 ft | 398 kts | 328° |
| 2026-05-05 16:51 | 49.03667 | 8.30144 | 18895 ft | 400 kts | 328° |
| 2026-05-05 16:51 | 49.06078 | 8.28003 | 19397 ft | 404 kts | 328° |
| 2026-05-05 16:52 | 49.08525 | 8.25832 | 19907 ft | 407 kts | 328° |
| 2026-05-05 16:52 | 49.10974 | 8.23661 | 20403 ft | 410 kts | 328° |
| 2026-05-05 16:52 | 49.13452 | 8.21460 | 20874 ft | 413 kts | 328° |
| 2026-05-05 16:52 | 49.15950 | 8.19235 | 21346 ft | 417 kts | 328° |
| 2026-05-05 16:53 | 49.18463 | 8.16996 | 21810 ft | 420 kts | 328° |
| 2026-05-05 16:53 | 49.20986 | 8.14750 | 22260 ft | 423 kts | 328° |
| 2026-05-05 16:53 | 49.23573 | 8.12535 | 22704 ft | 427 kts | 334° |
| 2026-05-05 16:53 | 49.26420 | 8.11183 | 23094 ft | 433 kts | 351° |
| 2026-05-05 16:54 | 49.29439 | 8.10926 | 23482 ft | 437 kts | 359° |
| 2026-05-05 16:54 | 49.32497 | 8.10855 | 23738 ft | 439 kts | 359° |
| 2026-05-05 16:54 | 49.35561 | 8.10805 | 23820 ft | 443 kts | 359° |
| 2026-05-05 16:54 | 49.38658 | 8.10758 | 23829 ft | 446 kts | 359° |
| 2026-05-05 16:55 | 49.41766 | 8.10708 | 23832 ft | 447 kts | 359° |
| 2026-05-05 16:55 | 49.44871 | 8.10653 | 23831 ft | 447 kts | 359° |
| 2026-05-05 16:55 | 49.47980 | 8.10591 | 23828 ft | 446 kts | 359° |
| 2026-05-05 16:55 | 49.51042 | 8.10522 | 23829 ft | 445 kts | 359° |
| 2026-05-05 16:56 | 49.54166 | 8.10450 | 23828 ft | 444 kts | 359° |
| 2026-05-05 16:56 | 49.57258 | 8.10381 | 23830 ft | 444 kts | 359° |
| 2026-05-05 16:56 | 49.60344 | 8.10311 | 23842 ft | 445 kts | 359° |
| 2026-05-05 16:56 | 49.63449 | 8.10240 | 23834 ft | 446 kts | 359° |
| 2026-05-05 16:57 | 49.66549 | 8.10168 | 23829 ft | 446 kts | 359° |
| 2026-05-05 16:57 | 49.69657 | 8.10099 | 23818 ft | 446 kts | 359° |
| 2026-05-05 16:57 | 49.72748 | 8.10030 | 23815 ft | 446 kts | 359° |
| 2026-05-05 16:57 | 49.75861 | 8.09963 | 23813 ft | 446 kts | 359° |
| 2026-05-05 16:58 | 49.78962 | 8.09898 | 23812 ft | 446 kts | 359° |
| 2026-05-05 16:58 | 49.82059 | 8.09834 | 23811 ft | 446 kts | 359° |
| 2026-05-05 16:58 | 49.85169 | 8.09769 | 23810 ft | 446 kts | 359° |
| 2026-05-05 16:58 | 49.88271 | 8.09699 | 23810 ft | 446 kts | 359° |
| 2026-05-05 16:59 | 49.91382 | 8.09629 | 23805 ft | 447 kts | 359° |
| 2026-05-05 16:59 | 49.94492 | 8.09558 | 23823 ft | 447 kts | 359° |
| 2026-05-05 16:59 | 49.97598 | 8.09486 | 23825 ft | 447 kts | 359° |
| 2026-05-05 16:59 | 50.00722 | 8.09413 | 23826 ft | 448 kts | 359° |
| 2026-05-05 17:00 | 50.03832 | 8.09341 | 23825 ft | 448 kts | 359° |
| 2026-05-05 17:00 | 50.06943 | 8.09272 | 23827 ft | 448 kts | 359° |
| 2026-05-05 17:00 | 50.10056 | 8.09207 | 23827 ft | 449 kts | 359° |
| 2026-05-05 17:00 | 50.13190 | 8.09143 | 23826 ft | 449 kts | 359° |
| 2026-05-05 17:01 | 50.16312 | 8.09078 | 23821 ft | 449 kts | 359° |
| 2026-05-05 17:01 | 50.19442 | 8.09009 | 23819 ft | 449 kts | 359° |
| 2026-05-05 17:01 | 50.22569 | 8.08937 | 23818 ft | 450 kts | 359° |
| 2026-05-05 17:01 | 50.25698 | 8.08864 | 23817 ft | 450 kts | 359° |
| 2026-05-05 17:02 | 50.28830 | 8.08793 | 23817 ft | 450 kts | 359° |
| 2026-05-05 17:02 | 50.31919 | 8.08725 | 23815 ft | 450 kts | 359° |
| 2026-05-05 17:02 | 50.35051 | 8.08657 | 23809 ft | 450 kts | 359° |
| 2026-05-05 17:02 | 50.38188 | 8.08588 | 23807 ft | 450 kts | 359° |
| 2026-05-05 17:03 | 50.41320 | 8.08514 | 23812 ft | 450 kts | 359° |
| 2026-05-05 17:03 | 50.44448 | 8.08438 | 23814 ft | 450 kts | 359° |
| 2026-05-05 17:03 | 50.47517 | 8.08369 | 23822 ft | 445 kts | 359° |
| 2026-05-05 17:03 | 50.50623 | 8.08305 | 23388 ft | 438 kts | 359° |
| 2026-05-05 17:04 | 50.53640 | 8.08245 | 22328 ft | 430 kts | 359° |
| 2026-05-05 17:04 | 50.56612 | 8.08182 | 21288 ft | 423 kts | 359° |
| 2026-05-05 17:04 | 50.59535 | 8.08115 | 20404 ft | 419 kts | 359° |
| 2026-05-05 17:04 | 50.62436 | 8.08046 | 20125 ft | 417 kts | 359° |
| 2026-05-05 17:05 | 50.65328 | 8.07976 | 19847 ft | 412 kts | 359° |
| 2026-05-05 17:05 | 50.68172 | 8.08064 | 19374 ft | 407 kts | 6° |
| 2026-05-05 17:05 | 50.70928 | 8.08884 | 18912 ft | 402 kts | 17° |
| 2026-05-05 17:05 | 50.73531 | 8.10447 | 18426 ft | 397 kts | 27° |
| 2026-05-05 17:06 | 50.75933 | 8.12544 | 17916 ft | 394 kts | 31° |
| 2026-05-05 17:06 | 50.78309 | 8.14683 | 17407 ft | 390 kts | 31° |
| 2026-05-05 17:06 | 50.80658 | 8.16796 | 16908 ft | 387 kts | 30° |
| 2026-05-05 17:06 | 50.82983 | 8.18888 | 16410 ft | 384 kts | 30° |
| 2026-05-05 17:07 | 50.85306 | 8.20981 | 15891 ft | 382 kts | 31° |
| 2026-05-05 17:07 | 50.87613 | 8.23065 | 15384 ft | 381 kts | 30° |
| 2026-05-05 17:07 | 50.89903 | 8.25133 | 14856 ft | 380 kts | 30° |
| 2026-05-05 17:07 | 50.92206 | 8.27211 | 14327 ft | 379 kts | 30° |
| 2026-05-05 17:08 | 50.94489 | 8.29276 | 13800 ft | 378 kts | 30° |
| 2026-05-05 17:08 | 50.96766 | 8.31338 | 13215 ft | 377 kts | 30° |
| 2026-05-05 17:08 | 50.99040 | 8.33401 | 12669 ft | 375 kts | 30° |
| 2026-05-05 17:08 | 51.01273 | 8.35428 | 12110 ft | 363 kts | 30° |
| 2026-05-05 17:09 | 51.03425 | 8.37380 | 11591 ft | 348 kts | 31° |
| 2026-05-05 17:09 | 51.05514 | 8.39281 | 11054 ft | 346 kts | 30° |
| 2026-05-05 17:09 | 51.07598 | 8.41182 | 10551 ft | 345 kts | 30° |
| 2026-05-05 17:09 | 51.09648 | 8.43054 | 10407 ft | 335 kts | 30° |
| 2026-05-05 17:10 | 51.11642 | 8.44877 | 10279 ft | 322 kts | 30° |
| 2026-05-05 17:10 | 51.13529 | 8.46602 | 10017 ft | 306 kts | 31° |
| 2026-05-05 17:10 | 51.15349 | 8.48268 | 9625 ft | 296 kts | 31° |
| 2026-05-05 17:10 | 51.17136 | 8.49909 | 9501 ft | 297 kts | 31° |
| 2026-05-05 17:11 | 51.18970 | 8.51386 | 9361 ft | 295 kts | 19° |
| 2026-05-05 17:11 | 51.20982 | 8.52056 | 9170 ft | 297 kts | 3° |
| 2026-05-05 17:11 | 51.23039 | 8.51815 | 8677 ft | 298 kts | 348° |
| 2026-05-05 17:11 | 51.25069 | 8.51164 | 8294 ft | 296 kts | 348° |
| 2026-05-05 17:12 | 51.27096 | 8.50529 | 7887 ft | 294 kts | 348° |
| 2026-05-05 17:12 | 51.29084 | 8.49915 | 7538 ft | 291 kts | 348° |
| 2026-05-05 17:12 | 51.31064 | 8.49305 | 7146 ft | 289 kts | 348° |
| 2026-05-05 17:12 | 51.33034 | 8.48698 | 6760 ft | 287 kts | 349° |
| 2026-05-05 17:13 | 51.34985 | 8.48097 | 6390 ft | 285 kts | 349° |
| 2026-05-05 17:13 | 51.36926 | 8.47500 | 6024 ft | 283 kts | 349° |
| 2026-05-05 17:13 | 51.38845 | 8.46908 | 5808 ft | 279 kts | 349° |
| 2026-05-05 17:13 | 51.40749 | 8.46321 | 5486 ft | 280 kts | 349° |
| 2026-05-05 17:14 | 51.42669 | 8.45726 | 5066 ft | 282 kts | 349° |
| 2026-05-05 17:14 | 51.44642 | 8.45112 | 4289 ft | 295 kts | 349° |
| 2026-05-05 17:14 | 51.46687 | 8.44476 | 3766 ft | 300 kts | 350° |
| 2026-05-05 17:14 | 51.48713 | 8.43849 | 3582 ft | 295 kts | 350° |
| 2026-05-05 17:15 | 51.50732 | 8.43648 | 3414 ft | 287 kts | 6° |
| 2026-05-05 17:15 | 51.52638 | 8.44302 | 3193 ft | 279 kts | 22° |
| 2026-05-05 17:15 | 51.54339 | 8.45730 | 2912 ft | 273 kts | 36° |
| 2026-05-05 17:15 | 51.55718 | 8.47809 | 2568 ft | 272 kts | 53° |
| 2026-05-05 17:16 | 51.56758 | 8.50248 | 2229 ft | 262 kts | 56° |
| 2026-05-05 17:16 | 51.57726 | 8.52617 | 1877 ft | 243 kts | 56° |
| 2026-05-05 17:16 | 51.58597 | 8.54752 | 1564 ft | 215 kts | 54° |
| 2026-05-05 17:16 | 51.59382 | 8.56670 | 1292 ft | 195 kts | 56° |
| 2026-05-05 17:17 | 51.60082 | 8.58384 | 1060 ft | 172 kts | 55° |
| 2026-05-05 17:17 | 51.60698 | 8.59894 | 816 ft | 154 kts | 54° |
| 2026-05-05 17:17 | 51.61249 | 8.61234 | 717 ft | 123 kts | 58° |
| 2026-05-05 17:17 | 51.61617 | 8.62141 | 696 ft | 74 kts | 57° |
| 2026-05-05 17:18 | 51.61807 | 8.62610 | 687 ft | 34 kts | 56° |
| 2026-05-05 17:18 | 51.61894 | 8.62823 | 681 ft | 29 kts | 59° |
| 2026-05-05 17:18 | 51.61849 | 8.63074 | 683 ft | 24 kts | 165° |
| 2026-05-05 17:18 | 51.61737 | 8.62923 | 683 ft | 12 kts | 237° |
| 2026-05-05 17:19 | 51.61704 | 8.62842 | 685 ft | 6 kts | 237° |
| 2026-05-05 17:19 | 51.61693 | 8.62813 | 682 ft | 5 kts | 237° |
| 2026-05-05 17:19 | 51.61613 | 8.62617 | 693 ft | 24 kts | 236° |
| 2026-05-05 17:19 | 51.61523 | 8.62397 | 696 ft | 22 kts | 238° |
| 2026-05-05 17:20 | 51.61470 | 8.62262 | 714 ft | 16 kts | 235° |
| 2026-05-05 17:20 | 51.61423 | 8.62152 | 720 ft | 9 kts | 236° |
| 2026-05-05 17:20 | 51.61398 | 8.62091 | 718 ft | 4 kts | 237° |
| 2026-05-05 17:20 | 51.61386 | 8.62060 | 720 ft | 3 kts | 237° |
| 2026-05-05 17:21 | 51.61376 | 8.62038 | 718 ft | 2 kts | 231° |
| 2026-05-05 17:21 | 51.61367 | 8.62024 | 719 ft | 2 kts | 224° |
| 2026-05-05 17:21 | 51.61338 | 8.62011 | 720 ft | 12 kts | 190° |
| 2026-05-05 17:22 | 51.61191 | 8.61940 | 730 ft | 7 kts | 227° |
| 2026-05-05 17:22 | 51.61165 | 8.61884 | 731 ft | 6 kts | 234° |
| 2026-05-05 17:22 | 51.61145 | 8.61839 | 731 ft | 5 kts | 234° |
| 2026-05-05 17:22 | 51.61128 | 8.61802 | 731 ft | 4 kts | 234° |
| 2026-05-05 17:23 | 51.61115 | 8.61780 | 731 ft | 1 kts | 207° |
| 2026-05-05 17:23 | 51.61108 | 8.61826 | 731 ft | 12 kts | 98° |
| 2026-05-05 17:23 | 51.61082 | 8.61863 | 731 ft | 2 kts | 143° |
| 2026-05-05 17:23 | 51.61079 | 8.61867 | 731 ft | 0 kts | 143° |